Time;durP1;ratioP1;P1;durP2;ratioP2;P2;SDS_P1;SDS_P2;PMS_P1;PMS_P2;Temp;Humidity;BMP_temperature;BMP_pressure;BME280_temperature;BME280_humidity;BME280_pressure;Samples;Min_cycle;Max_cycle;Signal;HPM_P1;HPM_P2
2021/10/24 00:00:53;;;;;;;;;;;;;;;22.80;32.57;98459.81;5038718;28;941;-78
2021/10/24 00:03:18;;;;;;;;;;;;;;;22.79;32.28;98458.19;5047199;28;972;-77
2021/10/24 00:05:44;;;;;;;;;;;;;;;22.72;32.41;98461.22;5049725;28;979;-78
2021/10/24 00:08:09;;;;;;;;;;;;;;;22.56;32.94;98464.03;5011879;28;976;-78
2021/10/24 00:10:34;;;;;;;;;;;;;;;22.60;32.82;98465.53;5048716;28;870;-78
2021/10/24 00:13:00;;;;;;;;;;;;;;;22.45;33.04;98469.16;5010794;28;1262;-78
2021/10/24 00:15:25;;;;;;;;;;;;;;;22.47;32.91;98472.31;5046848;28;1006;-77
2021/10/24 00:17:51;;;;;;;;;;;;;;;22.48;32.87;98480.38;5046162;28;1906;-79
2021/10/24 00:20:16;;;;;;;;;;;;;;;22.54;32.55;98472.19;5046431;28;841;-77
2021/10/24 00:22:42;;;;;;;;;;;;;;;22.18;34.26;98478.66;5046077;28;1188;-77
2021/10/24 00:25:07;;;;;;;;;;;;;;;22.29;35.05;98484.88;5044778;28;912;-78
2021/10/24 00:27:33;;;;;;;;;;;;;;;22.26;35.41;98491.41;5046019;28;858;-77
2021/10/24 00:29:58;;;;;;;;;;;;;;;22.87;34.41;98490.84;5044713;28;914;-77
2021/10/24 00:32:24;;;;;;;;;;;;;;;22.84;34.08;98486.03;5047347;28;965;-78
2021/10/24 00:34:49;;;;;;;;;;;;;;;22.90;34.07;98483.53;5027606;28;1139;-77
2021/10/24 00:37:14;;;;;;;;;;;;;;;22.91;33.72;98490.00;5045845;28;946;-78
2021/10/24 00:39:40;;;;;;;;;;;;;;;23.20;33.04;98490.84;5026967;28;1989;-78
2021/10/24 00:42:05;;;;;;;;;;;;;;;22.77;34.03;98491.09;5046494;28;819;-77
2021/10/24 00:44:32;;;;;;;;;;;;;;;23.06;33.08;98485.56;5025896;28;1143;-77
2021/10/24 00:46:57;;;;;;;;;;;;;;;22.91;32.93;98484.31;4984930;28;964;-77
2021/10/24 00:49:23;;;;;;;;;;;;;;;22.77;32.79;98491.88;4928830;29;1242;-78
2021/10/24 00:51:49;;;;;;;;;;;;;;;22.77;32.56;98494.72;4947134;29;943;-78
2021/10/24 00:54:15;;;;;;;;;;;;;;;22.54;33.04;98498.50;4929611;29;1149;-78
2021/10/24 00:56:41;;;;;;;;;;;;;;;22.42;33.16;98495.53;4930685;29;971;-78
2021/10/24 00:59:07;;;;;;;;;;;;;;;22.42;33.11;98487.81;4945340;29;1906;-79
2021/10/24 01:01:33;;;;;;;;;;;;;;;22.35;33.04;98500.13;4912464;29;1166;-78
2021/10/24 01:03:59;;;;;;;;;;;;;;;22.48;32.60;98514.41;4925828;29;967;-78
2021/10/24 01:06:24;;;;;;;;;;;;;;;22.47;32.70;98515.66;4928309;29;1004;-78
2021/10/24 01:08:50;;;;;;;;;;;;;;;22.51;32.55;98507.09;4888669;29;1117;-77
2021/10/24 01:11:15;;;;;;;;;;;;;;;22.52;32.34;98520.03;4871358;29;1066;-78
2021/10/24 01:13:41;;;;;;;;;;;;;;;22.48;32.40;98513.63;4868709;29;1067;-78
2021/10/24 01:16:10;;;;;;;;;;;;;;;22.39;32.76;98521.94;4856388;29;1087;-78
2021/10/24 01:18:37;;;;;;;;;;;;;;;21.78;35.15;98518.28;4881555;29;1951;-77
2021/10/24 01:21:02;;;;;;;;;;;;;;;22.62;33.82;98518.97;4885759;29;1254;-77
2021/10/24 01:23:28;;;;;;;;;;;;;;;22.18;34.93;98512.66;4886387;29;1253;-78
2021/10/24 01:25:53;;;;;;;;;;;;;;;22.30;34.79;98511.97;4890060;29;1323;-78
2021/10/24 01:28:19;;;;;;;;;;;;;;;22.50;34.39;98528.19;4868625;29;944;-78
2021/10/24 01:30:45;;;;;;;;;;;;;;;22.97;33.20;98528.75;4871407;29;1132;-78
2021/10/24 01:33:12;;;;;;;;;;;;;;;22.63;33.70;98521.38;4868477;29;1427;-77
2021/10/24 01:35:53;;;;;;;;;;;;;;;23.16;32.70;98518.56;4870123;29;1242;-77
2021/10/24 01:38:20;;;;;;;;;;;;;;;23.08;32.62;98528.47;4856052;29;1907;-78
2021/10/24 01:40:45;;;;;;;;;;;;;;;23.13;32.01;98525.13;4903432;29;1163;-77
2021/10/24 01:43:11;;;;;;;;;;;;;;;22.83;32.38;98529.84;4889300;29;1119;-77
2021/10/24 01:45:36;;;;;;;;;;;;;;;22.54;32.52;98528.91;4907679;29;1015;-78
2021/10/24 01:48:09;;;;;;;;;;;;;;;22.34;32.57;98537.44;4913989;29;1398;-78
2021/10/24 01:50:35;;;;;;;;;;;;;;;22.62;32.46;98533.16;4930066;29;1089;-77
2021/10/24 01:53:01;;;;;;;;;;;;;;;22.54;32.34;98540.25;4922565;29;1056;-77
2021/10/24 01:55:26;;;;;;;;;;;;;;;22.32;32.70;98557.69;4910414;29;1684;-77
2021/10/24 01:57:52;;;;;;;;;;;;;;;22.45;32.43;98551.38;4910352;29;1322;-78
2021/10/24 02:00:18;;;;;;;;;;;;;;;22.43;31.95;98563.13;4910670;29;1891;-78
2021/10/24 02:02:48;;;;;;;;;;;;;;;22.49;31.96;98578.44;4941939;29;1181;-78
2021/10/24 02:05:33;;;;;;;;;;;;;;;22.45;31.96;98591.06;4935342;29;1179;-78
2021/10/24 02:07:59;;;;;;;;;;;;;;;21.75;34.14;98604.09;4945521;29;1144;-78
2021/10/24 02:10:26;;;;;;;;;;;;;;;21.67;35.06;98608.31;4962165;29;1109;-77
2021/10/24 02:12:53;;;;;;;;;;;;;;;21.77;35.22;98607.31;4959744;29;1123;-78
2021/10/24 02:15:21;;;;;;;;;;;;;;;22.39;33.62;98618.34;4944213;29;1210;-77
2021/10/24 02:17:47;;;;;;;;;;;;;;;22.46;33.51;98626.69;4944191;29;1204;-77
2021/10/24 02:20:15;;;;;;;;;;;;;;;22.48;33.43;98627.84;4963545;29;1918;-78
2021/10/24 02:22:42;;;;;;;;;;;;;;;22.65;32.82;98637.25;4964351;29;1102;-78
2021/10/24 02:25:16;;;;;;;;;;;;;;;22.84;32.53;98636.41;4930417;29;974;-78
2021/10/24 02:27:43;;;;;;;;;;;;;;;22.97;32.54;98635.78;4944824;29;1215;-77
2021/10/24 02:30:09;;;;;;;;;;;;;;;23.27;31.41;98643.22;4928679;29;1235;-78
2021/10/24 02:32:34;;;;;;;;;;;;;;;22.91;31.49;98660.25;4947880;29;975;-78
2021/10/24 02:35:06;;;;;;;;;;;;;;;22.71;31.59;98655.34;4945986;29;1676;-77
2021/10/24 02:37:41;;;;;;;;;;;;;;;22.74;31.40;98654.50;4931794;29;1428;-78
2021/10/24 02:40:10;;;;;;;;;;;;;;;22.44;32.18;98657.53;4929841;29;1996;-77
2021/10/24 02:42:36;;;;;;;;;;;;;;;22.38;32.13;98662.88;4947225;29;1082;-78
2021/10/24 02:45:01;;;;;;;;;;;;;;;22.46;31.91;98664.38;4945448;29;1215;-78
2021/10/24 02:47:27;;;;;;;;;;;;;;;22.42;32.15;98663.63;4890162;29;1222;-78
2021/10/24 02:49:52;;;;;;;;;;;;;;;22.36;32.12;98660.50;4888698;29;1010;-78
2021/10/24 02:52:18;;;;;;;;;;;;;;;22.45;32.11;98667.63;4908939;29;1540;-77
2021/10/24 02:54:44;;;;;;;;;;;;;;;22.41;32.21;98672.56;4921599;29;1090;-78
2021/10/24 02:57:10;;;;;;;;;;;;;;;22.31;32.08;98666.66;4924395;29;1177;-78
2021/10/24 02:59:35;;;;;;;;;;;;;;;22.24;32.53;98678.16;4912297;29;1906;-78
2021/10/24 03:02:01;;;;;;;;;;;;;;;22.53;31.59;98677.59;4947931;29;991;-79
2021/10/24 03:04:29;;;;;;;;;;;;;;;22.23;32.92;98690.72;4930227;29;1256;-78
2021/10/24 03:06:55;;;;;;;;;;;;;;;21.95;34.12;98685.53;4927166;29;1222;-78
2021/10/24 03:09:21;;;;;;;;;;;;;;;22.41;33.40;98679.03;4941768;29;1271;-77
2021/10/24 03:11:46;;;;;;;;;;;;;;;22.66;33.24;98684.22;4926619;29;1060;-79
2021/10/24 03:14:13;;;;;;;;;;;;;;;22.92;32.67;98684.56;4908667;29;1165;-78
2021/10/24 03:16:40;;;;;;;;;;;;;;;22.81;32.55;98685.53;4910907;29;1142;-78
2021/10/24 03:19:06;;;;;;;;;;;;;;;23.24;31.91;98681.00;4951072;29;1906;-78
2021/10/24 03:21:31;;;;;;;;;;;;;;;22.78;32.74;98689.25;4968251;28;1125;-78
2021/10/24 03:24:00;;;;;;;;;;;;;;;23.02;32.01;98692.84;4950325;28;1113;-78
2021/10/24 03:26:26;;;;;;;;;;;;;;;22.58;32.66;98685.59;4949666;29;1332;-78
2021/10/24 03:28:52;;;;;;;;;;;;;;;22.64;32.01;98692.38;4944945;29;1095;-78
2021/10/24 03:31:18;;;;;;;;;;;;;;;22.59;31.97;98696.53;4946451;29;1128;-78
2021/10/24 03:33:44;;;;;;;;;;;;;;;22.48;31.95;98700.78;4945121;29;1251;-81
2021/10/24 03:36:09;;;;;;;;;;;;;;;22.43;32.20;98701.28;4909440;29;1118;-79
2021/10/24 03:38:34;;;;;;;;;;;;;;;22.57;31.93;98695.34;4920170;29;1962;-79
2021/10/24 03:41:00;;;;;;;;;;;;;;;22.47;32.18;98699.19;4928024;29;1201;-79
2021/10/24 03:43:27;;;;;;;;;;;;;;;22.48;31.96;98700.78;4926586;29;938;-79
2021/10/24 03:45:52;;;;;;;;;;;;;;;22.45;31.91;98713.00;4930106;29;1269;-79
2021/10/24 03:48:17;;;;;;;;;;;;;;;22.35;32.34;98709.13;4927131;29;1141;-79
2021/10/24 03:50:48;;;;;;;;;;;;;;;22.44;31.81;98705.75;4929422;29;1342;-79
2021/10/24 03:53:14;;;;;;;;;;;;;;;22.50;31.73;98715.34;4896870;29;1270;-79
2021/10/24 03:55:40;;;;;;;;;;;;;;;22.28;32.16;98718.59;4914653;29;1120;-79
2021/10/24 03:58:06;;;;;;;;;;;;;;;22.40;32.19;98710.69;4890830;29;1907;-79
2021/10/24 04:00:32;;;;;;;;;;;;;;;22.38;31.99;98713.13;4873375;29;1258;-79
2021/10/24 04:03:05;;;;;;;;;;;;;;;22.20;32.49;98719.13;4871700;29;1622;-79
2021/10/24 04:05:44;;;;;;;;;;;;;;;21.90;33.43;98712.31;4889883;29;1302;-78
2021/10/24 04:08:09;;;;;;;;;;;;;;;21.91;34.17;98715.94;4924421;29;1113;-79
2021/10/24 04:10:34;;;;;;;;;;;;;;;22.30;34.04;98713.28;4929695;29;1122;-79
2021/10/24 04:13:00;;;;;;;;;;;;;;;22.65;33.29;98716.69;4946806;29;955;-79
2021/10/24 04:15:26;;;;;;;;;;;;;;;22.41;33.52;98715.09;4931711;29;1122;-78
2021/10/24 04:17:53;;;;;;;;;;;;;;;22.90;32.98;98732.41;4915946;29;1165;-79
2021/10/24 04:20:21;;;;;;;;;;;;;;;22.86;32.61;98727.59;4932130;29;1915;-79
2021/10/24 04:22:46;;;;;;;;;;;;;;;22.77;33.16;98730.19;4909574;29;1766;-78
2021/10/24 04:25:12;;;;;;;;;;;;;;;22.60;33.02;98725.69;4908618;29;1041;-79
2021/10/24 04:27:37;;;;;;;;;;;;;;;23.20;31.77;98728.53;4891825;29;1115;-79
2021/10/24 04:30:04;;;;;;;;;;;;;;;22.95;31.84;98729.88;4867802;29;935;-79
2021/10/24 04:32:30;;;;;;;;;;;;;;;22.67;31.93;98728.38;4873320;29;1120;-79
2021/10/24 04:34:55;;;;;;;;;;;;;;;22.57;32.06;98727.34;4885315;29;1169;-79
2021/10/24 04:37:21;;;;;;;;;;;;;;;22.47;32.35;98744.56;4873267;29;959;-79
2021/10/24 04:39:47;;;;;;;;;;;;;;;22.35;32.68;98755.31;4870143;29;1927;-79
2021/10/24 04:42:12;;;;;;;;;;;;;;;22.55;32.04;98754.56;4857175;29;1246;-79
2021/10/24 04:44:39;;;;;;;;;;;;;;;22.56;32.41;98750.47;4870630;29;1513;-79
2021/10/24 04:47:05;;;;;;;;;;;;;;;22.52;32.16;98752.56;4872994;29;1244;-79
2021/10/24 04:49:31;;;;;;;;;;;;;;;22.36;32.68;98750.44;4887151;29;1110;-79
2021/10/24 04:51:56;;;;;;;;;;;;;;;22.43;32.38;98761.63;4887842;29;1121;-79
2021/10/24 04:54:23;;;;;;;;;;;;;;;22.41;32.21;98768.97;4899322;29;1201;-79
2021/10/24 04:56:52;;;;;;;;;;;;;;;22.36;32.22;98765.41;4874771;29;1146;-79
2021/10/24 04:59:18;;;;;;;;;;;;;;;22.48;31.90;98760.34;4903931;29;1981;-79
2021/10/24 05:01:45;;;;;;;;;;;;;;;22.36;32.27;98759.72;4909412;29;1056;-79
2021/10/24 05:04:11;;;;;;;;;;;;;;;22.34;32.30;98759.38;4928091;29;1117;-79
2021/10/24 05:06:37;;;;;;;;;;;;;;;22.38;31.99;98767.00;4931588;29;1241;-78
2021/10/24 05:09:03;;;;;;;;;;;;;;;22.54;32.66;98773.59;4929724;29;1373;-79
2021/10/24 05:11:28;;;;;;;;;;;;;;;21.88;34.43;98784.81;4978845;28;1120;-79
2021/10/24 05:13:54;;;;;;;;;;;;;;;22.40;33.86;98790.06;4926007;29;1153;-79
2021/10/24 05:16:19;;;;;;;;;;;;;;;22.95;32.56;98802.84;4928047;29;1139;-79
2021/10/24 05:18:45;;;;;;;;;;;;;;;23.01;32.34;98801.13;4925649;29;1966;-79
2021/10/24 05:21:13;;;;;;;;;;;;;;;22.63;33.28;98809.91;4928176;29;1153;-79
2021/10/24 05:23:38;;;;;;;;;;;;;;;23.17;32.12;98808.94;4924736;29;1146;-79
2021/10/24 05:26:04;;;;;;;;;;;;;;;23.37;31.91;98804.03;4930673;29;1520;-78
2021/10/24 05:28:31;;;;;;;;;;;;;;;23.06;32.11;98786.44;4887363;29;1162;-78
2021/10/24 05:30:57;;;;;;;;;;;;;;;23.13;31.64;98780.59;4876407;29;1336;-78
2021/10/24 05:33:23;;;;;;;;;;;;;;;22.83;31.62;98788.03;4869887;29;1135;-79
2021/10/24 05:36:09;;;;;;;;;;;;;;;22.64;31.90;98800.19;4873015;29;1113;-79
2021/10/24 05:38:35;;;;;;;;;;;;;;;22.54;32.01;98823.84;4870105;29;1915;-78
2021/10/24 05:41:08;;;;;;;;;;;;;;;22.56;32.05;98824.22;4871871;29;1234;-79
2021/10/24 05:43:34;;;;;;;;;;;;;;;22.60;31.98;98827.81;4868396;29;1388;-79
2021/10/24 05:46:00;;;;;;;;;;;;;;;22.56;32.03;98827.06;4854482;29;1398;-79
2021/10/24 05:48:25;;;;;;;;;;;;;;;22.47;32.01;98830.44;4850278;29;1207;-79
2021/10/24 05:51:00;;;;;;;;;;;;;;;22.46;32.05;98828.84;4868794;29;1665;-79
2021/10/24 05:53:27;;;;;;;;;;;;;;;22.54;31.79;98835.22;4849827;29;1139;-79
2021/10/24 05:55:54;;;;;;;;;;;;;;;22.45;31.84;98840.63;4867819;29;1182;-79
2021/10/24 05:58:20;;;;;;;;;;;;;;;22.29;32.34;98850.59;4849276;29;1918;-79
2021/10/24 06:01:21;;;;;;;;;;;;;;;22.39;32.26;98865.03;4834210;29;1026;-79
2021/10/24 06:04:05;;;;;;;;;;;;;;;22.28;32.29;98868.84;4833573;29;980;-79
2021/10/24 06:06:49;;;;;;;;;;;;;;;21.78;34.20;98868.72;4841956;29;1077;-79
2021/10/24 06:09:14;;;;;;;;;;;;;;;22.62;32.84;98873.53;4849577;29;1013;-79
2021/10/24 06:11:54;;;;;;;;;;;;;;;22.30;33.57;98874.88;4871469;29;1171;-79
2021/10/24 06:14:19;;;;;;;;;;;;;;;22.41;33.26;98876.72;4852277;29;936;-79
2021/10/24 06:16:45;;;;;;;;;;;;;;;22.50;32.91;98874.16;4860480;29;1186;-78
2021/10/24 06:19:10;;;;;;;;;;;;;;;22.93;32.31;98879.13;4869148;29;1903;-79
2021/10/24 06:21:36;;;;;;;;;;;;;;;22.78;32.18;98870.03;4834720;29;1235;-79
2021/10/24 06:24:01;;;;;;;;;;;;;;;22.98;31.60;98884.28;4838243;29;1073;-79
2021/10/24 06:26:27;;;;;;;;;;;;;;;22.91;31.49;98887.28;4816107;29;1304;-79
2021/10/24 06:28:52;;;;;;;;;;;;;;;22.56;31.66;98884.59;4801396;29;1026;-79
2021/10/24 06:31:19;;;;;;;;;;;;;;;22.55;31.92;98897.16;4816308;29;1345;-79
2021/10/24 06:34:03;;;;;;;;;;;;;;;22.45;31.96;98888.81;4815069;29;963;-80
2021/10/24 06:36:47;;;;;;;;;;;;;;;22.35;32.46;98908.41;4818809;29;973;-79
2021/10/24 06:39:23;;;;;;;;;;;;;;;22.40;32.27;98909.16;4830639;29;1876;-80
2021/10/24 06:41:49;;;;;;;;;;;;;;;22.53;32.12;98919.47;4824891;29;1308;-79
2021/10/24 06:44:32;;;;;;;;;;;;;;;22.60;31.93;98912.91;4850970;29;945;-79
2021/10/24 06:47:16;;;;;;;;;;;;;;;22.48;32.00;98921.97;4852992;29;977;-79
2021/10/24 06:50:20;;;;;;;;;;;;;;;22.31;31.91;98929.53;4833545;29;905;-79
2021/10/24 06:52:55;;;;;;;;;;;;;;;22.27;32.03;98935.25;4833167;29;1018;-80
2021/10/24 06:55:32;;;;;;;;;;;;;;;22.24;31.96;98936.13;4833784;29;1010;-78
2021/10/24 06:58:17;;;;;;;;;;;;;;;22.31;31.89;98936.00;4813531;29;1949;-79
2021/10/24 07:01:01;;;;;;;;;;;;;;;22.39;32.06;98944.44;4821562;29;1386;-79
2021/10/24 07:03:46;;;;;;;;;;;;;;;22.09;33.58;98944.00;4814718;29;990;-79
2021/10/24 07:06:23;;;;;;;;;;;;;;;22.03;33.72;98953.41;4816154;29;1085;-79
2021/10/24 07:09:07;;;;;;;;;;;;;;;22.81;32.38;98949.41;4814171;29;972;-80
2021/10/24 07:11:33;;;;;;;;;;;;;;;22.54;33.20;98957.16;4816863;29;1295;-79
2021/10/24 07:13:58;;;;;;;;;;;;;;;22.94;32.37;98952.47;4782088;29;1107;-79
2021/10/24 07:16:24;;;;;;;;;;;;;;;22.62;33.03;98955.81;4823882;29;1238;-79
2021/10/24 07:18:49;;;;;;;;;;;;;;;23.47;31.42;98952.75;4834848;29;1911;-79
2021/10/24 07:21:15;;;;;;;;;;;;;;;22.73;32.51;98956.44;4868378;29;1147;-79
2021/10/24 07:23:40;;;;;;;;;;;;;;;22.90;31.65;98956.59;4871754;29;1249;-79
2021/10/24 07:26:18;;;;;;;;;;;;;;;22.69;31.65;98961.38;4874443;29;1380;-79
2021/10/24 07:28:43;;;;;;;;;;;;;;;22.51;32.05;98958.00;4871927;29;1406;-79
2021/10/24 07:31:09;;;;;;;;;;;;;;;22.00;32.76;98972.03;4874101;29;1076;-79
2021/10/24 07:33:35;;;;;;;;;;;;;;;22.49;32.12;98986.00;4872202;29;1448;-79
2021/10/24 07:36:18;;;;;;;;;;;;;;;22.43;31.96;98993.38;4940571;29;1190;-79
2021/10/24 07:38:44;;;;;;;;;;;;;;;22.40;32.13;98988.56;4872031;29;1887;-78
2021/10/24 07:41:09;;;;;;;;;;;;;;;22.62;31.41;98987.00;4911606;29;1162;-79
2021/10/24 07:43:37;;;;;;;;;;;;;;;22.44;31.94;98992.97;4892999;29;1505;-80
2021/10/24 07:46:02;;;;;;;;;;;;;;;22.23;32.41;99002.56;4895396;29;888;-79
2021/10/24 07:48:27;;;;;;;;;;;;;;;22.35;32.01;98999.16;4834306;29;1246;-79
2021/10/24 07:50:53;;;;;;;;;;;;;;;22.33;31.83;99006.50;4822807;29;1421;-79
2021/10/24 07:53:26;;;;;;;;;;;;;;;22.43;31.52;99007.53;4833950;29;1406;-79
2021/10/24 07:55:54;;;;;;;;;;;;;;;22.32;32.43;99021.88;4836653;29;1124;-79
2021/10/24 07:58:43;;;;;;;;;;;;;;;22.36;33.22;99023.44;4836773;29;1991;-79
2021/10/24 08:01:10;;;;;;;;;;;;;;;22.56;32.70;99014.25;4818762;29;1376;-79
2021/10/24 08:03:35;;;;;;;;;;;;;;;22.70;32.78;99021.75;4778910;30;1285;-78
2021/10/24 08:06:01;;;;;;;;;;;;;;;22.76;32.30;99028.56;4792675;29;1354;-79
2021/10/24 08:08:27;;;;;;;;;;;;;;;22.98;32.04;99034.72;4761381;30;1094;-79
2021/10/24 08:10:53;;;;;;;;;;;;;;;22.62;32.83;99035.22;4746098;30;1135;-78
2021/10/24 08:13:19;;;;;;;;;;;;;;;22.77;32.56;99030.97;4726202;30;1495;-79
2021/10/24 08:15:48;;;;;;;;;;;;;;;23.23;31.53;99037.16;4711908;30;1106;-80
2021/10/24 08:18:14;;;;;;;;;;;;;;;22.75;31.85;99035.47;4709768;30;1983;-79
2021/10/24 08:20:58;;;;;;;;;;;;;;;22.87;31.27;99029.19;4730298;30;990;-79
2021/10/24 08:23:24;;;;;;;;;;;;;;;22.60;31.35;99035.66;4744171;30;1189;-79
2021/10/24 08:25:52;;;;;;;;;;;;;;;22.62;31.23;99043.75;4754864;30;1256;-79
2021/10/24 08:28:17;;;;;;;;;;;;;;;22.69;31.00;99049.34;4776199;30;1172;-78
2021/10/24 08:30:55;;;;;;;;;;;;;;;22.52;31.40;99056.03;4765462;30;986;-78
2021/10/24 08:33:30;;;;;;;;;;;;;;;22.34;31.73;99053.47;4814810;29;1001;-79
2021/10/24 08:35:56;;;;;;;;;;;;;;;22.35;31.75;99040.88;4800790;30;1047;-78
2021/10/24 08:38:22;;;;;;;;;;;;;;;22.36;31.40;99051.78;4779777;30;1904;-79
2021/10/24 08:40:48;;;;;;;;;;;;;;;22.46;31.44;99060.59;4784482;29;1031;-79
2021/10/24 08:43:27;;;;;;;;;;;;;;;22.49;31.27;99060.53;4831326;29;1039;-79
2021/10/24 08:45:52;;;;;;;;;;;;;;;22.30;31.62;99070.50;4839454;29;1018;-79
2021/10/24 08:48:18;;;;;;;;;;;;;;;22.23;31.44;99076.28;4852398;29;885;-79
2021/10/24 08:50:44;;;;;;;;;;;;;;;22.32;31.49;99070.06;4873569;29;902;-80
2021/10/24 08:53:11;;;;;;;;;;;;;;;22.33;31.49;99068.88;4892037;29;909;-79
2021/10/24 08:55:39;;;;;;;;;;;;;;;22.28;31.23;99084.31;4874164;29;1557;-79
2021/10/24 08:58:05;;;;;;;;;;;;;;;21.74;32.76;99067.06;4892355;29;1052;-80
2021/10/24 09:00:30;;;;;;;;;;;;;;;22.41;32.14;99069.56;4906830;29;1884;-79
2021/10/24 09:02:56;;;;;;;;;;;;;;;22.37;32.38;99078.09;4929243;29;1006;-79
2021/10/24 09:05:36;;;;;;;;;;;;;;;22.56;31.75;99082.31;4930307;29;1366;-79
2021/10/24 09:08:01;;;;;;;;;;;;;;;22.85;31.12;99083.53;4873505;29;1217;-79
2021/10/24 09:10:36;;;;;;;;;;;;;;;22.49;31.73;99088.09;4873979;29;1030;-79
2021/10/24 09:13:04;;;;;;;;;;;;;;;22.59;31.65;99087.97;4873385;29;987;-79
2021/10/24 09:15:43;;;;;;;;;;;;;;;22.76;31.12;99086.09;4876210;29;1052;-79
2021/10/24 09:18:08;;;;;;;;;;;;;;;22.71;31.05;99095.09;4909793;29;977;-79
2021/10/24 09:20:34;;;;;;;;;;;;;;;22.80;30.48;99095.38;4913276;29;908;-80
2021/10/24 09:23:04;;;;;;;;;;;;;;;22.60;30.62;99094.44;4920189;29;921;-79
2021/10/24 09:25:30;;;;;;;;;;;;;;;22.44;30.90;99088.56;4930896;29;1095;-79
2021/10/24 09:27:56;;;;;;;;;;;;;;;22.43;30.92;99096.25;4930098;29;970;-79
2021/10/24 09:30:27;;;;;;;;;;;;;;;22.41;31.04;99092.25;4930574;29;1098;-79
2021/10/24 09:32:55;;;;;;;;;;;;;;;22.38;30.86;99104.44;4929217;29;926;-79
2021/10/24 09:35:44;;;;;;;;;;;;;;;22.35;31.04;99095.56;4931114;29;977;-79
2021/10/24 09:38:29;;;;;;;;;;;;;;;22.30;31.19;99104.53;4938864;28;1981;-79
2021/10/24 09:40:55;;;;;;;;;;;;;;;22.31;31.07;99105.34;4969178;29;1013;-79
2021/10/24 09:43:22;;;;;;;;;;;;;;;22.23;31.26;99106.66;4965823;29;1033;-80
2021/10/24 09:45:51;;;;;;;;;;;;;;;22.17;31.13;99106.28;4968226;29;1175;-79
2021/10/24 09:48:17;;;;;;;;;;;;;;;22.21;31.34;99098.56;4966845;29;979;-80
2021/10/24 09:50:50;;;;;;;;;;;;;;;22.29;31.24;99108.59;4954219;29;1140;-79
2021/10/24 09:53:20;;;;;;;;;;;;;;;22.15;31.70;99105.91;4967031;28;1016;-80
2021/10/24 09:55:47;;;;;;;;;;;;;;;22.75;30.77;99112.88;4970097;28;996;-80
2021/10/24 09:58:12;;;;;;;;;;;;;;;22.11;31.78;99113.66;4966452;28;1977;-79
2021/10/24 10:00:39;;;;;;;;;;;;;;;22.54;31.18;99118.84;4969360;29;918;-80
2021/10/24 10:03:05;;;;;;;;;;;;;;;22.94;30.57;99102.09;4966654;29;965;-79
2021/10/24 10:05:30;;;;;;;;;;;;;;;22.61;31.30;99107.38;4968499;28;902;-79
2021/10/24 10:07:56;;;;;;;;;;;;;;;22.84;31.02;99110.28;4966501;28;1019;-79
2021/10/24 10:10:22;;;;;;;;;;;;;;;23.05;30.56;99108.41;4966761;28;1026;-79
2021/10/24 10:12:48;;;;;;;;;;;;;;;23.18;30.00;99112.28;4982888;28;1011;-79
2021/10/24 10:15:14;;;;;;;;;;;;;;;22.71;30.40;99109.28;4987565;28;1326;-79
2021/10/24 10:17:39;;;;;;;;;;;;;;;22.53;30.46;99111.53;5025357;28;1267;-79
2021/10/24 10:20:20;;;;;;;;;;;;;;;22.59;30.68;99110.66;5008971;28;1997;-78
2021/10/24 10:22:58;;;;;;;;;;;;;;;22.51;30.83;99119.69;5024559;28;938;-80
2021/10/24 10:25:26;;;;;;;;;;;;;;;22.42;30.86;99122.22;5007167;28;876;-79
2021/10/24 10:27:52;;;;;;;;;;;;;;;22.45;30.77;99115.69;5007544;28;985;-79
2021/10/24 10:30:34;;;;;;;;;;;;;;;22.30;31.16;99109.41;5006435;28;976;-79
2021/10/24 10:33:00;;;;;;;;;;;;;;;22.28;30.95;99106.19;4966057;29;1645;-79
2021/10/24 10:35:27;;;;;;;;;;;;;;;22.28;31.11;99111.88;4966998;29;1018;-78
2021/10/24 10:37:58;;;;;;;;;;;;;;;22.29;30.92;99117.09;4965713;29;961;-79
2021/10/24 10:40:30;;;;;;;;;;;;;;;22.31;30.90;99113.84;4967279;29;1898;-79
2021/10/24 10:42:55;;;;;;;;;;;;;;;22.39;30.53;99117.41;4966515;29;1289;-79
2021/10/24 10:45:21;;;;;;;;;;;;;;;22.22;30.89;99108.66;4967060;28;1219;-79
2021/10/24 10:47:47;;;;;;;;;;;;;;;22.30;30.95;99110.19;4967559;29;958;-79
2021/10/24 10:50:28;;;;;;;;;;;;;;;22.14;30.97;99124.16;4966370;28;1013;-79
2021/10/24 10:52:57;;;;;;;;;;;;;;;22.28;30.67;99123.22;4971330;29;1102;-79
2021/10/24 10:55:22;;;;;;;;;;;;;;;22.24;31.30;99123.25;4952390;29;1034;-80
2021/10/24 10:57:48;;;;;;;;;;;;;;;22.78;30.62;99116.88;4952980;29;881;-79
2021/10/24 11:00:32;;;;;;;;;;;;;;;22.71;30.41;99122.66;4936116;29;1883;-80
2021/10/24 11:02:58;;;;;;;;;;;;;;;22.43;30.98;99127.44;4938169;28;1049;-79
2021/10/24 11:05:41;;;;;;;;;;;;;;;22.76;30.68;99119.34;4990092;28;893;-79
2021/10/24 11:08:25;;;;;;;;;;;;;;;22.49;30.98;99137.13;4988711;28;967;-79
2021/10/24 11:10:51;;;;;;;;;;;;;;;22.82;30.47;99126.97;4991006;28;963;-79
2021/10/24 11:13:28;;;;;;;;;;;;;;;22.82;30.30;99129.78;4987913;28;1038;-79
2021/10/24 11:15:54;;;;;;;;;;;;;;;22.67;30.08;99122.69;4991155;28;1054;-79
2021/10/24 11:18:30;;;;;;;;;;;;;;;22.70;29.79;99127.53;4949270;29;1895;-79
2021/10/24 11:20:55;;;;;;;;;;;;;;;22.46;30.08;99134.31;4952274;29;962;-79
2021/10/24 11:23:21;;;;;;;;;;;;;;;22.46;30.42;99128.66;4934166;29;1004;-79
2021/10/24 11:25:47;;;;;;;;;;;;;;;22.43;30.24;99118.13;4953512;29;1085;-80
2021/10/24 11:28:16;;;;;;;;;;;;;;;22.44;30.27;99125.44;4930958;29;958;-79
2021/10/24 11:30:42;;;;;;;;;;;;;;;22.41;30.35;99123.44;4933895;29;1052;-79
2021/10/24 11:33:07;;;;;;;;;;;;;;;22.34;30.41;99122.31;4930745;29;1013;-79
2021/10/24 11:35:34;;;;;;;;;;;;;;;22.42;30.42;99122.22;4933077;29;843;-79
2021/10/24 11:38:00;;;;;;;;;;;;;;;22.20;30.87;99116.78;4911439;29;948;-79
2021/10/24 11:40:29;;;;;;;;;;;;;;;22.24;30.51;99126.06;4896378;29;1980;-79
2021/10/24 11:42:55;;;;;;;;;;;;;;;22.21;30.71;99135.41;4893111;29;992;-79
2021/10/24 11:45:21;;;;;;;;;;;;;;;22.19;30.47;99137.88;4894060;29;906;-79
2021/10/24 11:47:59;;;;;;;;;;;;;;;22.20;30.59;99145.16;4894211;29;1160;-79
2021/10/24 11:50:44;;;;;;;;;;;;;;;22.02;30.53;99133.97;4948947;29;880;-80
2021/10/24 11:53:18;;;;;;;;;;;;;;;22.17;30.98;99134.63;4911328;29;1331;-79
2021/10/24 11:55:45;;;;;;;;;;;;;;;22.53;30.38;99129.34;4913548;29;1076;-79
2021/10/24 12:03:14;;;;;;;;;;;;;;;22.77;30.00;99147.28;4910262;29;954;-80
2021/10/24 12:05:40;;;;;;;;;;;;;;;22.95;29.92;99149.94;4914188;29;1002;-79
2021/10/24 12:08:06;;;;;;;;;;;;;;;22.63;30.44;99151.09;4916314;29;1122;-79
2021/10/24 12:10:35;;;;;;;;;;;;;;;22.78;29.87;99134.69;4934527;29;991;-79
2021/10/24 12:13:03;;;;;;;;;;;;;;;22.73;29.54;99142.88;4955694;28;907;-79
2021/10/24 12:15:35;;;;;;;;;;;;;;;22.42;29.95;99144.91;4989418;28;1042;-79
2021/10/24 12:18:00;;;;;;;;;;;;;;;22.40;29.84;99150.19;4987629;28;1024;-79
2021/10/24 12:20:26;;;;;;;;;;;;;;;22.34;30.35;99150.66;4991703;28;1952;-79
2021/10/24 12:22:59;;;;;;;;;;;;;;;22.51;30.01;99153.72;4988219;28;917;-80
2021/10/24 12:25:43;;;;;;;;;;;;;;;22.32;30.16;99163.63;5027996;28;943;-79
2021/10/24 12:28:32;;;;;;;;;;;;;;;22.36;30.21;99159.53;5029125;28;1041;-80
2021/10/24 12:31:05;;;;;;;;;;;;;;;22.10;30.53;99157.38;5031390;28;879;-79
2021/10/24 12:33:30;;;;;;;;;;;;;;;22.24;30.50;99162.94;5007401;28;927;-80
2021/10/24 12:35:58;;;;;;;;;;;;;;;22.09;30.45;99152.94;5009901;28;881;-79
2021/10/24 12:38:32;;;;;;;;;;;;;;;22.23;30.44;99155.66;5006732;28;1910;-80
2021/10/24 12:40:58;;;;;;;;;;;;;;;22.31;30.34;99162.84;5006871;28;1069;-79
2021/10/24 12:43:24;;;;;;;;;;;;;;;22.18;30.70;99167.44;5006346;28;902;-79
2021/10/24 12:45:53;;;;;;;;;;;;;;;21.85;31.27;99164.06;5008937;28;949;-79
2021/10/24 12:48:19;;;;;;;;;;;;;;;22.21;30.82;99163.75;5004945;28;958;-79
2021/10/24 12:50:45;;;;;;;;;;;;;;;22.21;30.86;99163.75;5008783;28;954;-79
2021/10/24 12:53:15;;;;;;;;;;;;;;;22.33;30.35;99171.75;5005963;28;946;-79
2021/10/24 12:55:56;;;;;;;;;;;;;;;22.74;29.78;99167.19;4975633;28;953;-79
2021/10/24 12:58:22;;;;;;;;;;;;;;;22.53;29.93;99159.75;5005092;28;1907;-78
2021/10/24 13:00:47;;;;;;;;;;;;;;;22.96;29.50;99174.25;5008034;28;1043;-79
2021/10/24 13:03:12;;;;;;;;;;;;;;;22.85;29.48;99163.00;5006038;28;1009;-80
2021/10/24 13:05:38;;;;;;;;;;;;;;;23.03;29.19;99173.34;5009375;28;941;-79
2021/10/24 13:08:03;;;;;;;;;;;;;;;22.77;29.10;99172.03;5007025;28;901;-79
2021/10/24 13:10:29;;;;;;;;;;;;;;;22.56;29.50;99187.28;5007472;28;1005;-79
2021/10/24 13:12:54;;;;;;;;;;;;;;;22.43;29.65;99180.53;5006524;28;818;-79